This is the latest recevied weather packets stored in our database for station/object K4IR. If no packets are shown the sender has not sent any weather packets the latest 10 day(s).
| Time | Temp. | Humidity | Pressure | Rain* | Wind** | Luminosity | Snow |
|---|---|---|---|---|---|---|---|
| 1788635558 | 32.78° C | 73% | 1010.1 hPa | 0 mm | - | 312 W/m² | - |
| 1788634956 | 33.89° C | 71% | 1010.1 hPa | 0 mm | - | 100 W/m² | - |
| 1788634356 | 34.44° C | 68% | 1010.1 hPa | 0 mm | - | 625 W/m² | - |
| 1788633755 | 34.44° C | 69% | 1010.6 hPa | 0 mm | - | 635 W/m² | - |
| 1788633151 | 35° C | 67% | 1010.7 hPa | 0 mm | - | 649 W/m² | - |
| 1788632550 | 34.44° C | 68% | 1010.6 hPa | 0 mm | - | 693 W/m² | - |
| 1788631950 | 35° C | 69% | 1010.5 hPa | 0 mm | - | 686 W/m² | - |
| 1788631346 | 33.89° C | 71% | 1010.8 hPa | 0 mm | - | 701 W/m² | - |
| 1788630747 | 34.44° C | 66% | 1011.4 hPa | 0 mm | - | 699 W/m² | - |
| 1788630144 | 34.44° C | 64% | 1011.3 hPa | 0 mm | - | 719 W/m² | - |
| 1788629559 | 35° C | 63% | 1011.2 hPa | 0 mm | - | 173 W/m² | - |
| 1788628940 | 33.89° C | 65% | 1011.3 hPa | 0 mm | - | 717 W/m² | - |
| 1788628338 | 33.89° C | 64% | 1011.4 hPa | 0 mm | - | 710 W/m² | - |
| 1788627735 | 33.89° C | 65% | 1011.5 hPa | 0 mm | - | 726 W/m² | - |
| 1788627130 | 33.33° C | 68% | 1011.7 hPa | 0 mm | - | 712 W/m² | - |
| 1788626530 | 33.89° C | 66% | 1011.7 hPa | 0 mm | - | 710 W/m² | - |
| 1788625929 | 33.33° C | 69% | 1011.7 hPa | 0 mm | - | 699 W/m² | - |
| 1788625324 | 32.78° C | 69% | 1012 hPa | 0 mm | - | 694 W/m² | - |
| 1788624723 | 32.78° C | 70% | 1012.2 hPa | 0 mm | - | 685 W/m² | - |
| 1788624121 | 32.22° C | 71% | 1012.3 hPa | 0 mm | - | 378 W/m² | - |
| 1788623521 | 32.22° C | 74% | 1012.5 hPa | 0 mm | - | 296 W/m² | - |
| 1788622917 | 31.67° C | 75% | 1012.8 hPa | 0 mm | - | 97 W/m² | - |
| 1788622314 | 31.11° C | 76% | 1013 hPa | 0 mm | - | 117 W/m² | - |
| 1788621709 | 31.11° C | 77% | 1013 hPa | 0 mm | - | 126 W/m² | - |
| 1788621106 | 31.11° C | 77% | 1013 hPa | 0 mm | - | 89 W/m² | - |
* Rain latest hour (hover to see other rain measurements)
** Current wind speed in m/s (hover to see current wind gust speed)